sensor_id;sensor_type;location;lat;lon;timestamp;pressure;altitude;pressure_sealevel;temperature;humidity
20612;BME280;10465;42.686;23.364;2023-03-23T00:02:30;94949.28;;;9.52;90.11
20612;BME280;10465;42.686;23.364;2023-03-23T00:05:01;94957.88;;;9.58;89.54
20612;BME280;10465;42.686;23.364;2023-03-23T00:07:28;94967.78;;;9.66;89.74
20612;BME280;10465;42.686;23.364;2023-03-23T00:09:54;94961.50;;;9.62;88.36
20612;BME280;10465;42.686;23.364;2023-03-23T00:12:25;94948.59;;;9.47;87.64
20612;BME280;10465;42.686;23.364;2023-03-23T00:14:55;94954.84;;;9.51;86.96
20612;BME280;10465;42.686;23.364;2023-03-23T00:17:21;94945.09;;;9.37;87.65
20612;BME280;10465;42.686;23.364;2023-03-23T00:19:46;94970.22;;;9.35;88.59
20612;BME280;10465;42.686;23.364;2023-03-23T00:22:13;94952.41;;;9.27;88.49
20612;BME280;10465;42.686;23.364;2023-03-23T00:24:39;94961.63;;;9.29;88.85
20612;BME280;10465;42.686;23.364;2023-03-23T00:27:04;94971.53;;;9.24;89.38
20612;BME280;10465;42.686;23.364;2023-03-23T00:29:30;94963.09;;;9.08;90.44
20612;BME280;10465;42.686;23.364;2023-03-23T00:31:57;94978.84;;;9.13;89.93
20612;BME280;10465;42.686;23.364;2023-03-23T00:34:23;94964.34;;;8.97;90.00
20612;BME280;10465;42.686;23.364;2023-03-23T00:36:52;94980.19;;;9.10;89.37
20612;BME280;10465;42.686;23.364;2023-03-23T00:39:25;94935.88;;;8.80;89.40
20612;BME280;10465;42.686;23.364;2023-03-23T00:41:52;94984.69;;;9.10;89.84
20612;BME280;10465;42.686;23.364;2023-03-23T00:44:19;94992.00;;;8.99;90.81
20612;BME280;10465;42.686;23.364;2023-03-23T00:46:49;94994.25;;;8.92;91.14
20612;BME280;10465;42.686;23.364;2023-03-23T00:49:20;94987.78;;;8.84;92.02
20612;BME280;10465;42.686;23.364;2023-03-23T00:51:54;94985.81;;;8.76;92.37
20612;BME280;10465;42.686;23.364;2023-03-23T00:54:20;94991.97;;;8.72;92.63
20612;BME280;10465;42.686;23.364;2023-03-23T00:56:46;94964.53;;;8.54;92.32
20612;BME280;10465;42.686;23.364;2023-03-23T00:59:11;94975.03;;;8.59;92.05
20612;BME280;10465;42.686;23.364;2023-03-23T01:01:37;94991.78;;;8.49;92.45
20612;BME280;10465;42.686;23.364;2023-03-23T01:04:03;94990.13;;;8.34;92.86
20612;BME280;10465;42.686;23.364;2023-03-23T01:06:31;94984.25;;;8.24;92.74
20612;BME280;10465;42.686;23.364;2023-03-23T01:08:58;94989.59;;;8.37;92.54
20612;BME280;10465;42.686;23.364;2023-03-23T01:11:24;94977.28;;;7.95;95.19
20612;BME280;10465;42.686;23.364;2023-03-23T01:13:50;94995.06;;;8.22;94.74
20612;BME280;10465;42.686;23.364;2023-03-23T01:16:16;94960.00;;;8.22;94.27
20612;BME280;10465;42.686;23.364;2023-03-23T01:18:42;94967.75;;;8.32;94.30
20612;BME280;10465;42.686;23.364;2023-03-23T01:21:13;94974.03;;;8.55;94.17
20612;BME280;10465;42.686;23.364;2023-03-23T01:23:40;94981.88;;;8.60;94.56
20612;BME280;10465;42.686;23.364;2023-03-23T01:26:07;94979.44;;;8.63;94.88
20612;BME280;10465;42.686;23.364;2023-03-23T01:28:37;94970.22;;;8.61;95.26
20612;BME280;10465;42.686;23.364;2023-03-23T01:31:04;94897.09;;;8.15;95.92
20612;BME280;10465;42.686;23.364;2023-03-23T01:33:30;94972.78;;;8.66;96.13
20612;BME280;10465;42.686;23.364;2023-03-23T01:35:56;94971.22;;;8.65;96.82
20612;BME280;10465;42.686;23.364;2023-03-23T01:38:22;94965.06;;;8.70;97.21
20612;BME280;10465;42.686;23.364;2023-03-23T01:40:47;94967.44;;;8.71;96.96
20612;BME280;10465;42.686;23.364;2023-03-23T01:43:14;94968.91;;;8.77;97.10
20612;BME280;10465;42.686;23.364;2023-03-23T01:45:41;94960.00;;;8.87;96.62
20612;BME280;10465;42.686;23.364;2023-03-23T01:48:28;94954.94;;;8.90;95.92
20612;BME280;10465;42.686;23.364;2023-03-23T01:51:09;94958.47;;;8.86;96.12
20612;BME280;10465;42.686;23.364;2023-03-23T01:53:41;94932.47;;;8.79;95.90
20612;BME280;10465;42.686;23.364;2023-03-23T01:56:09;94957.81;;;9.08;95.33
20612;BME280;10465;42.686;23.364;2023-03-23T01:58:37;94941.78;;;9.04;95.07
20612;BME280;10465;42.686;23.364;2023-03-23T02:01:09;94934.63;;;9.05;94.70
20612;BME280;10465;42.686;23.364;2023-03-23T02:03:38;94946.94;;;9.23;94.19
20612;BME280;10465;42.686;23.364;2023-03-23T02:06:05;94948.03;;;9.22;94.34
20612;BME280;10465;42.686;23.364;2023-03-23T02:08:31;94961.34;;;9.45;93.66
20612;BME280;10465;42.686;23.364;2023-03-23T02:10:58;94946.75;;;9.33;93.30
20612;BME280;10465;42.686;23.364;2023-03-23T02:13:25;94960.94;;;9.37;92.97
20612;BME280;10465;42.686;23.364;2023-03-23T02:16:03;94967.91;;;9.20;92.43
20612;BME280;10465;42.686;23.364;2023-03-23T02:26:52;94961.59;;;9.02;92.03
20612;BME280;10465;42.686;23.364;2023-03-23T02:32:16;94960.63;;;9.11;92.49
20612;BME280;10465;42.686;23.364;2023-03-23T02:34:51;94961.34;;;9.17;91.90
20612;BME280;10465;42.686;23.364;2023-03-23T02:37:46;94965.84;;;9.16;91.97
20612;BME280;10465;42.686;23.364;2023-03-23T02:40:20;94963.66;;;9.05;90.74
20612;BME280;10465;42.686;23.364;2023-03-23T02:42:50;94958.19;;;8.87;90.51
20612;BME280;10465;42.686;23.364;2023-03-23T02:45:17;94957.06;;;8.75;89.24
20612;BME280;10465;42.686;23.364;2023-03-23T02:47:45;94976.03;;;8.77;89.31
20612;BME280;10465;42.686;23.364;2023-03-23T02:50:14;94978.16;;;8.61;90.17
20612;BME280;10465;42.686;23.364;2023-03-23T02:52:42;94983.06;;;8.68;90.08
20612;BME280;10465;42.686;23.364;2023-03-23T02:55:09;94964.56;;;8.35;88.96
20612;BME280;10465;42.686;23.364;2023-03-23T02:57:37;94978.25;;;8.37;88.35
20612;BME280;10465;42.686;23.364;2023-03-23T03:00:07;94969.34;;;8.14;88.98
20612;BME280;10465;42.686;23.364;2023-03-23T03:02:38;94983.25;;;8.20;89.54
20612;BME280;10465;42.686;23.364;2023-03-23T03:11:12;95014.88;;;8.01;89.44
20612;BME280;10465;42.686;23.364;2023-03-23T03:13:51;95015.72;;;7.96;89.24
20612;BME280;10465;42.686;23.364;2023-03-23T03:16:38;95021.19;;;7.81;89.34
20612;BME280;10465;42.686;23.364;2023-03-23T03:19:20;95012.75;;;7.60;89.92
20612;BME280;10465;42.686;23.364;2023-03-23T03:21:52;95002.50;;;7.58;89.84
20612;BME280;10465;42.686;23.364;2023-03-23T03:24:20;95006.78;;;7.54;89.99
20612;BME280;10465;42.686;23.364;2023-03-23T03:26:48;95004.25;;;7.44;91.23
20612;BME280;10465;42.686;23.364;2023-03-23T03:29:17;95017.97;;;7.65;91.29
20612;BME280;10465;42.686;23.364;2023-03-23T03:31:44;95022.34;;;7.75;90.88
20612;BME280;10465;42.686;23.364;2023-03-23T03:34:14;95001.25;;;7.75;90.14
20612;BME280;10465;42.686;23.364;2023-03-23T03:36:44;95028.88;;;7.77;89.87
20612;BME280;10465;42.686;23.364;2023-03-23T03:39:11;95028.53;;;7.84;89.90
20612;BME280;10465;42.686;23.364;2023-03-23T03:41:38;95002.19;;;7.84;89.32
20612;BME280;10465;42.686;23.364;2023-03-23T03:44:05;95025.41;;;8.01;89.33
20612;BME280;10465;42.686;23.364;2023-03-23T03:46:35;95022.00;;;8.00;89.25
20612;BME280;10465;42.686;23.364;2023-03-23T03:49:02;95014.44;;;7.93;89.41
20612;BME280;10465;42.686;23.364;2023-03-23T03:51:29;95013.03;;;8.01;89.62
20612;BME280;10465;42.686;23.364;2023-03-23T03:53:55;94981.41;;;7.82;89.53
20612;BME280;10465;42.686;23.364;2023-03-23T03:56:21;94994.72;;;7.91;89.86
20612;BME280;10465;42.686;23.364;2023-03-23T03:58:47;95006.69;;;8.02;89.60
20612;BME280;10465;42.686;23.364;2023-03-23T04:01:14;95017.44;;;8.06;89.81
20612;BME280;10465;42.686;23.364;2023-03-23T04:03:40;94985.16;;;7.76;90.13
20612;BME280;10465;42.686;23.364;2023-03-23T04:06:06;94958.56;;;7.54;90.05
20612;BME280;10465;42.686;23.364;2023-03-23T04:08:33;95010.66;;;7.81;89.93
20612;BME280;10465;42.686;23.364;2023-03-23T04:10:59;94925.56;;;7.18;90.57
20612;BME280;10465;42.686;23.364;2023-03-23T04:13:24;94991.38;;;7.61;90.97
20612;BME280;10465;42.686;23.364;2023-03-23T04:15:50;95003.03;;;7.79;91.14
20612;BME280;10465;42.686;23.364;2023-03-23T04:18:16;95010.69;;;8.00;90.33
20612;BME280;10465;42.686;23.364;2023-03-23T04:20:44;95016.88;;;8.09;90.14
20612;BME280;10465;42.686;23.364;2023-03-23T04:23:13;95013.97;;;8.10;89.52
20612;BME280;10465;42.686;23.364;2023-03-23T04:25:38;95016.88;;;8.09;89.66
20612;BME280;10465;42.686;23.364;2023-03-23T04:28:06;95015.78;;;8.10;89.52
20612;BME280;10465;42.686;23.364;2023-03-23T04:30:32;94981.41;;;7.82;89.23
20612;BME280;10465;42.686;23.364;2023-03-23T04:32:57;95016.59;;;7.91;89.00
20612;BME280;10465;42.686;23.364;2023-03-23T04:35:24;95006.94;;;7.63;89.85
20612;BME280;10465;42.686;23.364;2023-03-23T04:37:51;94985.28;;;7.66;90.15
20612;BME280;10465;42.686;23.364;2023-03-23T04:40:18;95023.84;;;8.00;90.14
20612;BME280;10465;42.686;23.364;2023-03-23T04:42:44;95001.06;;;7.90;89.97
20612;BME280;10465;42.686;23.364;2023-03-23T04:45:19;95019.81;;;8.07;90.22
20612;BME280;10465;42.686;23.364;2023-03-23T04:47:49;95030.50;;;8.16;89.71
20612;BME280;10465;42.686;23.364;2023-03-23T04:50:20;95001.47;;;7.97;90.08
20612;BME280;10465;42.686;23.364;2023-03-23T04:52:49;95018.00;;;8.22;90.22
20612;BME280;10465;42.686;23.364;2023-03-23T04:55:17;95024.00;;;8.27;89.74
20612;BME280;10465;42.686;23.364;2023-03-23T04:57:44;95033.19;;;8.30;89.33
20612;BME280;10465;42.686;23.364;2023-03-23T05:00:10;95032.50;;;8.24;90.01
20612;BME280;10465;42.686;23.364;2023-03-23T05:02:41;95028.06;;;8.20;90.28
20612;BME280;10465;42.686;23.364;2023-03-23T05:05:07;95026.44;;;8.24;90.25
20612;BME280;10465;42.686;23.364;2023-03-23T05:07:34;95007.84;;;8.15;90.01
20612;BME280;10465;42.686;23.364;2023-03-23T05:09:59;95032.00;;;8.41;89.41
20612;BME280;10465;42.686;23.364;2023-03-23T05:12:25;95029.66;;;8.39;89.37
20612;BME280;10465;42.686;23.364;2023-03-23T05:14:50;95014.84;;;8.44;88.64
20612;BME280;10465;42.686;23.364;2023-03-23T05:17:16;95042.00;;;8.63;89.11
20612;BME280;10465;42.686;23.364;2023-03-23T05:19:43;95048.75;;;8.69;88.85
20612;BME280;10465;42.686;23.364;2023-03-23T05:22:13;95042.63;;;8.55;88.90
20612;BME280;10465;42.686;23.364;2023-03-23T05:24:39;95032.53;;;8.43;89.86
20612;BME280;10465;42.686;23.364;2023-03-23T05:27:05;95049.59;;;8.64;90.12
20612;BME280;10465;42.686;23.364;2023-03-23T05:29:33;95053.25;;;8.69;89.44
20612;BME280;10465;42.686;23.364;2023-03-23T05:32:01;95041.25;;;8.57;89.12
20612;BME280;10465;42.686;23.364;2023-03-23T05:34:27;95033.56;;;8.42;89.32
20612;BME280;10465;42.686;23.364;2023-03-23T05:36:54;95048.97;;;8.54;89.10
20612;BME280;10465;42.686;23.364;2023-03-23T05:39:21;95072.56;;;8.64;89.17
20612;BME280;10465;42.686;23.364;2023-03-23T05:41:47;95068.16;;;8.59;89.52
20612;BME280;10465;42.686;23.364;2023-03-23T05:44:12;95049.19;;;8.57;88.86
20612;BME280;10465;42.686;23.364;2023-03-23T05:46:40;95056.66;;;8.69;88.92
20612;BME280;10465;42.686;23.364;2023-03-23T05:49:06;95066.56;;;8.77;88.77
20612;BME280;10465;42.686;23.364;2023-03-23T05:51:32;95055.00;;;8.73;88.37
20612;BME280;10465;42.686;23.364;2023-03-23T05:53:58;94966.03;;;8.22;88.47
20612;BME280;10465;42.686;23.364;2023-03-23T05:56:24;95038.09;;;8.74;88.11
20612;BME280;10465;42.686;23.364;2023-03-23T05:58:50;95075.44;;;9.00;87.71
20612;BME280;10465;42.686;23.364;2023-03-23T06:01:15;95071.03;;;8.96;88.54
20612;BME280;10465;42.686;23.364;2023-03-23T06:03:41;95057.13;;;8.90;88.66
20612;BME280;10465;42.686;23.364;2023-03-23T06:06:10;95086.91;;;9.09;86.91
20612;BME280;10465;42.686;23.364;2023-03-23T06:08:36;95067.22;;;9.02;86.97
20612;BME280;10465;42.686;23.364;2023-03-23T06:11:03;95042.97;;;9.00;86.48
20612;BME280;10465;42.686;23.364;2023-03-23T06:13:28;95070.69;;;9.16;86.01
20612;BME280;10465;42.686;23.364;2023-03-23T06:15:57;95070.75;;;9.11;86.13
20612;BME280;10465;42.686;23.364;2023-03-23T06:18:23;95055.31;;;9.04;86.13
20612;BME280;10465;42.686;23.364;2023-03-23T06:20:49;95083.44;;;9.28;85.35
20612;BME280;10465;42.686;23.364;2023-03-23T06:23:16;95088.72;;;9.28;85.44
20612;BME280;10465;42.686;23.364;2023-03-23T06:25:42;95073.41;;;9.11;85.00
20612;BME280;10465;42.686;23.364;2023-03-23T06:28:07;95090.97;;;9.21;84.91
20612;BME280;10465;42.686;23.364;2023-03-23T06:30:34;95088.63;;;9.33;84.66
20612;BME280;10465;42.686;23.364;2023-03-23T06:33:00;95067.50;;;9.33;85.14
20612;BME280;10465;42.686;23.364;2023-03-23T06:35:25;95083.88;;;9.62;85.08
20612;BME280;10465;42.686;23.364;2023-03-23T06:37:51;95088.78;;;9.69;83.27
20612;BME280;10465;42.686;23.364;2023-03-23T06:40:18;95090.44;;;9.79;83.33
20612;BME280;10465;42.686;23.364;2023-03-23T06:42:44;95085.44;;;9.91;82.69
20612;BME280;10465;42.686;23.364;2023-03-23T06:45:10;95090.81;;;10.00;81.64
20612;BME280;10465;42.686;23.364;2023-03-23T06:47:36;95091.59;;;10.14;81.72
20612;BME280;10465;42.686;23.364;2023-03-23T06:50:02;95096.63;;;10.29;81.24
20612;BME280;10465;42.686;23.364;2023-03-23T06:52:27;95099.03;;;10.39;80.93
20612;BME280;10465;42.686;23.364;2023-03-23T06:54:53;95084.94;;;10.30;80.17
20612;BME280;10465;42.686;23.364;2023-03-23T06:57:19;95105.19;;;10.49;79.72
20612;BME280;10465;42.686;23.364;2023-03-23T06:59:45;95097.50;;;10.61;80.04
20612;BME280;10465;42.686;23.364;2023-03-23T07:02:12;95098.06;;;10.72;79.96
20612;BME280;10465;42.686;23.364;2023-03-23T07:04:39;95102.66;;;10.80;80.64
20612;BME280;10465;42.686;23.364;2023-03-23T07:07:07;95113.03;;;10.90;80.22
20612;BME280;10465;42.686;23.364;2023-03-23T07:09:33;95116.25;;;11.09;78.33
20612;BME280;10465;42.686;23.364;2023-03-23T07:11:58;95106.75;;;11.31;76.71
20612;BME280;10465;42.686;23.364;2023-03-23T07:14:24;95091.31;;;11.33;76.44
20612;BME280;10465;42.686;23.364;2023-03-23T07:16:51;95104.09;;;11.62;76.49
20612;BME280;10465;42.686;23.364;2023-03-23T07:19:16;95090.09;;;11.70;75.45
20612;BME280;10465;42.686;23.364;2023-03-23T07:21:42;95110.84;;;11.99;74.54
20612;BME280;10465;42.686;23.364;2023-03-23T07:24:11;95085.06;;;11.91;72.64
20612;BME280;10465;42.686;23.364;2023-03-23T07:26:42;95097.59;;;11.99;73.24
20612;BME280;10465;42.686;23.364;2023-03-23T07:29:08;95102.75;;;12.04;73.49
20612;BME280;10465;42.686;23.364;2023-03-23T07:31:34;95087.09;;;11.94;73.71
20612;BME280;10465;42.686;23.364;2023-03-23T07:34:00;95108.22;;;12.17;73.22
20612;BME280;10465;42.686;23.364;2023-03-23T07:36:26;95109.81;;;12.26;72.70
20612;BME280;10465;42.686;23.364;2023-03-23T07:38:52;95118.44;;;12.32;72.65
20612;BME280;10465;42.686;23.364;2023-03-23T07:41:18;95119.69;;;12.43;71.95
20612;BME280;10465;42.686;23.364;2023-03-23T07:43:45;95116.28;;;12.60;71.48
20612;BME280;10465;42.686;23.364;2023-03-23T07:46:10;95058.47;;;12.48;71.46
20612;BME280;10465;42.686;23.364;2023-03-23T07:48:36;95126.00;;;13.17;71.31
20612;BME280;10465;42.686;23.364;2023-03-23T07:51:03;95100.31;;;13.12;70.86
20612;BME280;10465;42.686;23.364;2023-03-23T07:53:28;95108.94;;;13.35;69.33
20612;BME280;10465;42.686;23.364;2023-03-23T07:55:54;95116.59;;;13.45;68.79
20612;BME280;10465;42.686;23.364;2023-03-23T07:58:20;95127.00;;;13.68;68.84
20612;BME280;10465;42.686;23.364;2023-03-23T08:00:46;95120.56;;;13.77;68.95
20612;BME280;10465;42.686;23.364;2023-03-23T08:03:13;95121.63;;;13.85;67.56
20612;BME280;10465;42.686;23.364;2023-03-23T08:05:39;95112.72;;;13.81;67.46
20612;BME280;10465;42.686;23.364;2023-03-23T08:08:08;95121.91;;;13.92;66.16
20612;BME280;10465;42.686;23.364;2023-03-23T08:10:34;95133.72;;;14.12;65.88
20612;BME280;10465;42.686;23.364;2023-03-23T08:13:00;95132.28;;;14.23;65.66
20612;BME280;10465;42.686;23.364;2023-03-23T08:15:27;95123.25;;;14.37;65.49
20612;BME280;10465;42.686;23.364;2023-03-23T08:17:54;95106.91;;;14.55;64.11
20612;BME280;10465;42.686;23.364;2023-03-23T08:20:20;95107.16;;;14.63;62.71
20612;BME280;10465;42.686;23.364;2023-03-23T08:22:53;95130.88;;;14.76;63.24
20612;BME280;10465;42.686;23.364;2023-03-23T08:25:20;95130.75;;;14.73;63.88
20612;BME280;10465;42.686;23.364;2023-03-23T08:27:45;95129.47;;;14.79;63.69
20612;BME280;10465;42.686;23.364;2023-03-23T08:30:15;95126.28;;;14.86;63.60
20612;BME280;10465;42.686;23.364;2023-03-23T08:32:41;95123.59;;;15.06;60.68
20612;BME280;10465;42.686;23.364;2023-03-23T08:35:09;95107.22;;;15.17;60.68
20612;BME280;10465;42.686;23.364;2023-03-23T08:37:36;95124.63;;;15.47;59.72
20612;BME280;10465;42.686;23.364;2023-03-23T08:40:03;95118.34;;;15.52;60.96
20612;BME280;10465;42.686;23.364;2023-03-23T08:42:39;95109.00;;;15.58;61.08
20612;BME280;10465;42.686;23.364;2023-03-23T08:45:06;95122.75;;;15.81;60.16
20612;BME280;10465;42.686;23.364;2023-03-23T08:47:33;95110.09;;;15.90;58.21
20612;BME280;10465;42.686;23.364;2023-03-23T08:49:58;95112.09;;;16.05;57.16
20612;BME280;10465;42.686;23.364;2023-03-23T08:52:25;95099.97;;;16.20;56.92
20612;BME280;10465;42.686;23.364;2023-03-23T08:54:50;95118.31;;;16.59;54.26
20612;BME280;10465;42.686;23.364;2023-03-23T08:57:16;95124.78;;;16.45;52.63
20612;BME280;10465;42.686;23.364;2023-03-23T08:59:43;95122.00;;;16.54;52.43
20612;BME280;10465;42.686;23.364;2023-03-23T09:02:12;95121.75;;;16.84;49.60
20612;BME280;10465;42.686;23.364;2023-03-23T09:04:39;95127.84;;;16.96;47.54
20612;BME280;10465;42.686;23.364;2023-03-23T09:07:05;95124.25;;;17.04;47.65
20612;BME280;10465;42.686;23.364;2023-03-23T09:09:31;95111.81;;;16.72;47.74
20612;BME280;10465;42.686;23.364;2023-03-23T09:11:59;95126.81;;;17.01;46.89
20612;BME280;10465;42.686;23.364;2023-03-23T09:14:25;95121.66;;;17.08;47.21
20612;BME280;10465;42.686;23.364;2023-03-23T09:16:50;95048.34;;;16.69;49.05
20612;BME280;10465;42.686;23.364;2023-03-23T09:19:16;95057.28;;;16.73;47.01
20612;BME280;10465;42.686;23.364;2023-03-23T09:21:42;95123.72;;;17.27;45.17
20612;BME280;10465;42.686;23.364;2023-03-23T09:24:10;95098.09;;;17.26;46.11
20612;BME280;10465;42.686;23.364;2023-03-23T09:26:36;95116.66;;;17.63;45.89
20612;BME280;10465;42.686;23.364;2023-03-23T09:29:02;95111.56;;;17.73;45.84
20612;BME280;10465;42.686;23.364;2023-03-23T09:31:27;95117.41;;;17.91;44.18
20612;BME280;10465;42.686;23.364;2023-03-23T09:33:54;95056.72;;;17.67;43.92
20612;BME280;10465;42.686;23.364;2023-03-23T09:36:21;95087.84;;;17.88;43.51
20612;BME280;10465;42.686;23.364;2023-03-23T09:38:50;95110.31;;;17.83;43.52
20612;BME280;10465;42.686;23.364;2023-03-23T09:47:08;95097.44;;;18.04;43.08
20612;BME280;10465;42.686;23.364;2023-03-23T09:49:45;95069.97;;;17.76;43.15
20612;BME280;10465;42.686;23.364;2023-03-23T09:52:15;95095.09;;;18.19;41.03
20612;BME280;10465;42.686;23.364;2023-03-23T09:54:47;95096.13;;;18.14;41.18
20612;BME280;10465;42.686;23.364;2023-03-23T09:57:40;95089.97;;;18.29;40.83
20612;BME280;10465;42.686;23.364;2023-03-23T10:00:30;95087.97;;;18.42;41.48
20612;BME280;10465;42.686;23.364;2023-03-23T10:03:05;95098.47;;;18.16;40.98
20612;BME280;10465;42.686;23.364;2023-03-23T10:05:34;95094.06;;;17.92;40.85
20612;BME280;10465;42.686;23.364;2023-03-23T10:08:05;95084.56;;;17.78;41.34
20612;BME280;10465;42.686;23.364;2023-03-23T10:10:47;95085.78;;;17.97;41.58
20612;BME280;10465;42.686;23.364;2023-03-23T10:13:22;95080.69;;;18.08;41.69
20612;BME280;10465;42.686;23.364;2023-03-23T10:15:50;95086.84;;;18.43;41.99
20612;BME280;10465;42.686;23.364;2023-03-23T10:18:29;95076.78;;;18.56;41.57
20612;BME280;10465;42.686;23.364;2023-03-23T10:20:59;95083.78;;;18.61;40.95
20612;BME280;10465;42.686;23.364;2023-03-23T10:28:48;95069.50;;;18.72;41.46
20612;BME280;10465;42.686;23.364;2023-03-23T10:31:24;95068.97;;;18.67;40.43
20612;BME280;10465;42.686;23.364;2023-03-23T10:33:56;95078.41;;;18.61;40.60
20612;BME280;10465;42.686;23.364;2023-03-23T10:36:27;95063.53;;;18.63;41.02
20612;BME280;10465;42.686;23.364;2023-03-23T10:41:30;95071.69;;;18.86;39.96
20612;BME280;10465;42.686;23.364;2023-03-23T10:43:56;95053.66;;;18.67;41.07
20612;BME280;10465;42.686;23.364;2023-03-23T10:48:58;95072.47;;;18.87;40.39
20612;BME280;10465;42.686;23.364;2023-03-23T10:51:31;95065.00;;;18.96;39.21
20612;BME280;10465;42.686;23.364;2023-03-23T10:54:00;95060.06;;;18.98;39.83
20612;BME280;10465;42.686;23.364;2023-03-23T10:56:34;95070.41;;;18.99;40.09
20612;BME280;10465;42.686;23.364;2023-03-23T10:59:21;95064.06;;;19.27;38.82
20612;BME280;10465;42.686;23.364;2023-03-23T11:01:54;95067.31;;;19.79;38.15
20612;BME280;10465;42.686;23.364;2023-03-23T11:04:22;95066.50;;;20.01;37.69
20612;BME280;10465;42.686;23.364;2023-03-23T11:06:51;95067.13;;;19.91;37.33
20612;BME280;10465;42.686;23.364;2023-03-23T11:09:20;95059.13;;;19.94;37.74
20612;BME280;10465;42.686;23.364;2023-03-23T11:11:51;95059.28;;;20.05;37.68
20612;BME280;10465;42.686;23.364;2023-03-23T11:14:26;95027.41;;;19.81;37.54
20612;BME280;10465;42.686;23.364;2023-03-23T11:16:57;95048.78;;;19.96;38.16
20612;BME280;10465;42.686;23.364;2023-03-23T11:19:28;95051.00;;;19.91;36.84
20612;BME280;10465;42.686;23.364;2023-03-23T11:24:33;95048.59;;;20.09;35.85
20612;BME280;10465;42.686;23.364;2023-03-23T11:26:59;95036.84;;;19.94;36.48
20612;BME280;10465;42.686;23.364;2023-03-23T11:29:27;95022.91;;;20.11;36.28
20612;BME280;10465;42.686;23.364;2023-03-23T11:34:31;95026.94;;;20.24;37.66
20612;BME280;10465;42.686;23.364;2023-03-23T11:37:38;95022.94;;;20.41;36.38
20612;BME280;10465;42.686;23.364;2023-03-23T11:42:43;95021.63;;;20.55;36.06
20612;BME280;10465;42.686;23.364;2023-03-23T11:48:12;95005.50;;;20.55;35.70
20612;BME280;10465;42.686;23.364;2023-03-23T11:51:44;95012.63;;;20.17;36.39
20612;BME280;10465;42.686;23.364;2023-03-23T11:54:15;95012.47;;;20.06;37.96
20612;BME280;10465;42.686;23.364;2023-03-23T11:56:43;95010.31;;;20.15;36.89
20612;BME280;10465;42.686;23.364;2023-03-23T11:59:12;94999.19;;;19.90;36.90
20612;BME280;10465;42.686;23.364;2023-03-23T12:01:47;95002.47;;;19.80;37.47
20612;BME280;10465;42.686;23.364;2023-03-23T12:12:47;94992.75;;;20.25;36.18
20612;BME280;10465;42.686;23.364;2023-03-23T12:26:49;94959.41;;;20.56;34.52
20612;BME280;10465;42.686;23.364;2023-03-23T12:29:29;94988.66;;;20.61;34.78
20612;BME280;10465;42.686;23.364;2023-03-23T12:37:40;94985.47;;;20.52;35.21
20612;BME280;10465;42.686;23.364;2023-03-23T12:40:45;94978.81;;;20.72;35.16
20612;BME280;10465;42.686;23.364;2023-03-23T12:46:16;94977.69;;;21.11;34.29
20612;BME280;10465;42.686;23.364;2023-03-23T12:48:49;94858.41;;;20.29;33.93
20612;BME280;10465;42.686;23.364;2023-03-23T12:56:51;94963.88;;;21.12;34.38
20612;BME280;10465;42.686;23.364;2023-03-23T12:59:53;94967.41;;;20.86;34.73
20612;BME280;10465;42.686;23.364;2023-03-23T13:02:27;94964.25;;;20.77;34.46
20612;BME280;10465;42.686;23.364;2023-03-23T13:05:03;94951.53;;;20.74;34.42
20612;BME280;10465;42.686;23.364;2023-03-23T13:07:34;94963.44;;;20.73;34.24
20612;BME280;10465;42.686;23.364;2023-03-23T13:12:34;94959.50;;;20.63;35.17
20612;BME280;10465;42.686;23.364;2023-03-23T13:15:45;94943.00;;;20.35;35.53
20612;BME280;10465;42.686;23.364;2023-03-23T13:23:38;94952.97;;;21.02;34.56
20612;BME280;10465;42.686;23.364;2023-03-23T13:26:12;94949.97;;;21.10;34.51
20612;BME280;10465;42.686;23.364;2023-03-23T13:31:29;94934.97;;;21.46;34.09
20612;BME280;10465;42.686;23.364;2023-03-23T13:36:59;94944.88;;;20.98;34.72
20612;BME280;10465;42.686;23.364;2023-03-23T13:39:29;94934.22;;;21.09;34.41
20612;BME280;10465;42.686;23.364;2023-03-23T13:47:21;94934.56;;;21.04;35.03
20612;BME280;10465;42.686;23.364;2023-03-23T13:54:50;94925.34;;;21.45;34.41
20612;BME280;10465;42.686;23.364;2023-03-23T13:57:48;94926.59;;;21.59;34.21
20612;BME280;10465;42.686;23.364;2023-03-23T14:10:56;94928.09;;;21.53;34.47
20612;BME280;10465;42.686;23.364;2023-03-23T14:16:32;94905.41;;;21.54;33.38
20612;BME280;10465;42.686;23.364;2023-03-23T14:19:01;94902.00;;;21.60;33.49
20612;BME280;10465;42.686;23.364;2023-03-23T14:21:39;94901.91;;;21.09;34.25
20612;BME280;10465;42.686;23.364;2023-03-23T14:24:15;94913.19;;;21.21;34.46
20612;BME280;10465;42.686;23.364;2023-03-23T14:26:41;94884.63;;;21.10;34.58
20612;BME280;10465;42.686;23.364;2023-03-23T14:29:10;94907.81;;;21.21;34.44
20612;BME280;10465;42.686;23.364;2023-03-23T14:31:36;94910.47;;;21.18;34.07
20612;BME280;10465;42.686;23.364;2023-03-23T14:34:05;94912.03;;;21.19;34.32
20612;BME280;10465;42.686;23.364;2023-03-23T14:36:36;94892.00;;;20.76;34.52
20612;BME280;10465;42.686;23.364;2023-03-23T14:39:07;94885.22;;;20.52;35.06
20612;BME280;10465;42.686;23.364;2023-03-23T14:41:38;94913.94;;;20.81;34.59
20612;BME280;10465;42.686;23.364;2023-03-23T14:44:07;94914.47;;;20.94;34.88
20612;BME280;10465;42.686;23.364;2023-03-23T14:46:34;94907.88;;;20.88;34.49
20612;BME280;10465;42.686;23.364;2023-03-23T14:49:02;94909.25;;;20.41;35.98
20612;BME280;10465;42.686;23.364;2023-03-23T14:51:29;94913.94;;;19.87;36.75
20612;BME280;10465;42.686;23.364;2023-03-23T14:53:57;94907.81;;;20.17;36.86
20612;BME280;10465;42.686;23.364;2023-03-23T14:56:23;94895.47;;;20.42;36.46
20612;BME280;10465;42.686;23.364;2023-03-23T14:58:53;94903.88;;;20.41;36.74
20612;BME280;10465;42.686;23.364;2023-03-23T15:01:28;94865.78;;;20.02;36.71
20612;BME280;10465;42.686;23.364;2023-03-23T15:04:18;94897.63;;;20.30;36.09